Time;durP1;ratioP1;P1;durP2;ratioP2;P2;SDS_P1;SDS_P2;PMS_P1;PMS_P2;Temp;Humidity;BMP_temperature;BMP_pressure;BME280_temperature;BME280_humidity;BME280_pressure;Samples;Min_cycle;Max_cycle;Signal;HPM_P1;HPM_P2
2021/06/03 00:04:37;;;;;;;21.30;12.07;;;;;;;8.42;68.16;99810.94;4252524;82;21385;-78
2021/06/03 00:10:46;;;;;;;27.37;14.38;;;;;;;8.33;68.36;99812.96;4423304;79;21028;-79
2021/06/03 00:16:50;;;;;;;27.50;15.78;;;;;;;8.31;68.81;99804.90;4420840;79;21084;-78
2021/06/03 00:22:55;;;;;;;23.25;13.18;;;;;;;8.22;68.56;99804.19;4385975;79;21004;-78
2021/06/03 00:29:04;;;;;;;22.27;13.62;;;;;;;7.95;68.61;99806.98;4420520;79;21394;-78
2021/06/03 00:35:07;;;;;;;20.10;13.55;;;;;;;7.97;69.88;99815.64;4417153;79;21061;-79
2021/06/03 00:41:11;;;;;;;26.62;14.13;;;;;;;7.93;69.47;99815.51;4415819;79;20974;-79
2021/06/03 00:47:13;;;;;;;32.80;14.35;;;;;;;7.86;69.97;99826.73;4411803;79;21052;-78
2021/06/03 00:53:20;;;;;;;26.65;14.35;;;;;;;7.76;70.18;99831.23;4413967;79;21025;-79
2021/06/03 00:59:21;;;;;;;20.70;13.48;;;;;;;7.63;70.34;99833.68;4407796;80;21146;-79
2021/06/03 01:05:43;;;;;;;20.35;12.13;;;;;;;7.57;71.21;99830.94;4386060;80;21260;-79
2021/06/03 01:12:00;;;;;;;25.97;14.43;;;;;;;7.66;70.74;99834.37;4403252;80;21061;-79
2021/06/03 01:18:06;;;;;;;22.02;13.38;;;;;;;7.42;70.87;99837.02;4408859;79;21087;-79
2021/06/03 01:24:41;;;;;;;19.62;12.28;;;;;;;7.26;71.02;99832.74;4410080;80;21049;-78
2021/06/03 01:30:53;;;;;;;;;;;;;;;7.05;71.24;99837.92;4407507;79;20996;-78
2021/06/03 01:36:59;;;;;;;19.05;10.65;;;;;;;6.89;72.33;99839.66;4413597;80;20155;-79
2021/06/03 01:43:15;;;;;;;14.00;7.80;;;;;;;6.92;71.82;99839.00;4414506;80;20985;-82
2021/06/03 01:49:26;;;;;;;12.93;7.42;;;;;;;6.84;72.67;99839.29;4414954;79;21081;-79
2021/06/03 01:55:29;;;;;;;14.28;10.05;;;;;;;6.85;72.03;99850.40;4309261;81;22193;-78
2021/06/03 02:01:31;;;;;;;16.55;10.38;;;;;;;6.69;72.34;99845.28;4308046;81;21098;-79
2021/06/03 02:07:43;;;;;;;16.87;9.90;;;;;;;6.64;72.53;99849.55;4281494;81;20988;-79
2021/06/03 02:13:55;;;;;;;18.67;9.83;;;;;;;6.58;72.80;99846.00;4410546;79;21014;-79
2021/06/03 02:20:18;;;;;;;17.82;10.53;;;;;;;6.53;73.30;99845.59;4424684;78;21099;-79
2021/06/03 02:26:43;;;;;;;17.12;9.70;;;;;;;6.55;73.39;99851.52;4406356;79;21060;-79
2021/06/03 02:32:52;;;;;;;16.52;10.20;;;;;;;6.58;73.92;99860.97;4403457;79;21496;-79
2021/06/03 02:39:08;;;;;;;14.98;9.63;;;;;;;6.80;73.67;99860.66;4405653;79;21078;-78
2021/06/03 02:45:24;;;;;;;16.30;10.18;;;;;;;6.83;73.59;99870.34;4350226;79;21113;-79
2021/06/03 02:51:36;;;;;;;16.65;9.08;;;;;;;6.59;73.44;99869.35;4367080;80;21115;-79
2021/06/03 02:57:45;;;;;;;14.03;8.28;;;;;;;6.67;74.15;99873.95;4352662;80;20997;-79
2021/06/03 03:04:03;;;;;;;14.25;9.68;;;;;;;6.85;74.08;99876.81;4349672;80;21015;-79
2021/06/03 03:10:29;;;;;;;12.53;8.40;;;;;;;6.66;73.84;99869.63;4365015;80;21044;-79
2021/06/03 03:16:38;;;;;;;14.05;9.80;;;;;;;6.64;74.51;99869.95;4376915;80;21063;-77
2021/06/03 03:22:55;;;;;;;15.22;10.12;;;;;;;6.77;74.04;99883.09;4232998;80;5266936;-79
2021/06/03 03:29:04;;;;;;;15.83;9.38;;;;;;;6.79;74.28;99878.13;4098346;85;21118;-78
2021/06/03 03:35:19;;;;;;;15.65;9.73;;;;;;;6.92;74.80;99879.23;4064202;85;21114;-79
2021/06/03 03:41:23;;;;;;;14.78;9.00;;;;;;;7.08;74.50;99889.02;4026915;82;116532;-78
2021/06/03 03:47:28;;;;;;;13.60;10.53;;;;;;;6.89;74.57;99888.06;4030370;85;21103;-78
2021/06/03 03:53:45;;;;;;;18.45;9.75;;;;;;;6.86;74.48;99887.95;4053671;86;21050;-78
2021/06/03 03:59:56;;;;;;;17.45;10.13;;;;;;;6.91;75.16;99883.66;4031229;86;21511;-78
2021/06/03 04:06:12;;;;;;;;;;;;;;;;;;;;;
2021/06/03 04:12:25;;;;;;;20.17;11.35;;;;;;;7.28;75.61;99890.96;3985601;86;21070;-78
2021/06/03 04:18:38;;;;;;;22.87;12.35;;;;;;;7.75;75.27;99895.84;4046222;86;21087;-78
2021/06/03 04:24:57;;;;;;;;;;;;;;;;;;;;;
2021/06/03 04:31:08;;;;;;;;;;;;;;;;;;;;;
2021/06/03 04:37:06;;;;;;;18.30;11.80;;;;;;;8.38;74.50;99899.27;4047285;87;21073;-80
2021/06/03 04:43:10;;;;;;;19.40;12.47;;;;;;;8.42;74.49;99899.62;4025406;85;3595180;-78
2021/06/03 04:49:20;;;;;;;19.27;12.50;;;;;;;8.57;74.59;99905.77;4118934;85;21060;-79
2021/06/03 04:55:25;;;;;;;20.72;12.63;;;;;;;8.80;74.35;99912.96;4091992;85;21059;-79
2021/06/03 05:07:47;;;;;;;19.00;11.48;;;;;;;9.18;74.06;99922.38;4114570;84;21587;-78
2021/06/03 05:13:57;;;;;;;16.42;10.72;;;;;;;9.33;73.93;99921.67;4060530;86;21057;-79
2021/06/03 05:20:22;;;;;;;17.48;11.20;;;;;;;9.58;73.66;99921.84;4060816;86;21132;-79
2021/06/03 05:26:46;;;;;;;14.07;10.38;;;;;;;9.79;74.31;99918.16;4074068;86;21028;-79
2021/06/03 05:32:44;;;;;;;15.83;9.73;;;;;;;10.10;74.79;99921.02;4036441;85;21540;-79
2021/06/03 05:39:02;;;;;;;12.45;8.28;;;;;;;10.43;74.59;99919.56;4108871;85;21054;-82
2021/06/03 05:45:15;;;;;;;13.30;8.28;;;;;;;10.78;74.45;99927.89;4084613;84;21174;-80
2021/06/03 05:51:24;;;;;;;14.95;9.43;;;;;;;11.13;74.36;99936.98;4111557;85;21007;-79
2021/06/03 05:57:32;;;;;;;15.58;10.08;;;;;;;11.45;73.83;99934.98;4123596;85;21072;-80
2021/06/03 06:03:45;;;;;;;15.80;9.93;;;;;;;11.77;73.38;99933.17;4140234;83;21618;-81
2021/06/03 06:09:51;;;;;;;15.08;9.30;;;;;;;12.06;73.35;99932.59;4149585;83;21066;-80
2021/06/03 06:16:07;;;;;;;10.95;8.28;;;;;;;12.39;73.50;99940.28;4146094;85;21042;-80
2021/06/03 06:22:11;;;;;;;14.85;8.83;;;;;;;12.79;73.07;99946.70;4141138;85;21012;-81
2021/06/03 06:28:18;;;;;;;11.35;7.35;;;;;;;13.17;72.67;99940.48;4149766;83;21062;-81
2021/06/03 06:34:28;;;;;;;11.75;6.62;;;;;;;13.54;72.06;99942.83;4139692;85;21079;-80
2021/06/03 06:40:52;;;;;;;10.58;6.05;;;;;;;13.85;71.49;99945.22;4120477;85;21106;-80
2021/06/03 06:47:09;;;;;;;8.88;5.25;;;;;;;14.18;70.34;99943.86;4137563;85;21783;-80
2021/06/03 06:53:17;;;;;;;9.65;5.65;;;;;;;14.64;68.73;99946.34;4057062;85;21083;-80
2021/06/03 06:59:40;;;;;;;12.05;5.55;;;;;;;15.31;65.48;99940.23;4062479;86;21636;-79
2021/06/03 07:05:59;;;;;;;7.25;4.83;;;;;;;16.16;66.24;99940.09;3973208;86;21038;-79
2021/06/03 07:12:23;;;;;;;6.83;3.72;;;;;;;17.02;66.30;99943.45;4071378;85;21089;-80
2021/06/03 07:18:18;;;;;;;6.75;3.30;;;;;;;18.04;65.41;99935.59;4093261;84;21025;-80
2021/06/03 07:24:30;;;;;;;3.58;2.70;;;;;;;18.87;64.00;99939.70;4081625;84;21016;-81
2021/06/03 07:30:53;;;;;;;3.55;2.33;;;;;;;19.47;62.27;99936.62;4095148;84;21069;-80
2021/06/03 07:37:11;;;;;;;3.55;2.35;;;;;;;20.02;60.41;99937.20;4104192;84;21060;-80
2021/06/03 07:43:45;;;;;;;5.90;2.50;;;;;;;20.45;58.90;99938.08;4076737;87;21423;-79
2021/06/03 07:50:35;;;;;;;;;;;;;;;;;;;;;
2021/06/03 07:56:45;;;;;;;;;;;;;;;;;;;;;
2021/06/03 08:09:18;;;;;;;5.05;2.55;;;;;;;21.21;53.90;99930.55;3766267;93;21052;-79
2021/06/03 08:15:31;;;;;;;3.75;2.47;;;;;;;20.92;49.60;99931.41;3992894;86;21114;-80
2021/06/03 08:21:47;;;;;;;3.45;2.22;;;;;;;20.98;48.88;99936.11;4063123;84;21051;-80
2021/06/03 08:28:24;;;;;;;5.28;1.98;;;;;;;21.21;49.92;99934.72;4061224;86;21347;-79
2021/06/03 08:41:02;;;;;;;4.10;1.80;;;;;;;21.38;47.69;99931.44;4081557;84;21117;-78
2021/06/03 08:54:00;;;;;;;5.42;2.10;;;;;;;21.33;45.81;99929.93;3959621;87;21115;-80
2021/06/03 09:06:42;;;;;;;;;;;;;;;21.43;42.09;99930.36;3749178;93;21180;-80
2021/06/03 09:13:09;;;;;;;4.90;2.00;;;;;;;21.17;39.45;99923.47;3785174;92;20248;-80
2021/06/03 09:19:14;;;;;;;3.83;2.08;;;;;;;21.04;41.57;99928.85;3842923;90;21693;-80
2021/06/03 09:25:37;;;;;;;4.97;1.95;;;;;;;21.20;41.46;99924.02;4017678;85;21466;-80
2021/06/03 09:31:39;;;;;;;3.37;1.85;;;;;;;21.51;41.16;99925.45;4108755;84;21045;-81
2021/06/03 09:37:42;;;;;;;4.55;1.80;;;;;;;21.89;40.53;99923.16;4110605;85;21084;-79
2021/06/03 09:43:59;;;;;;;;;;;;;;;;;;;;;
2021/06/03 09:50:10;;;;;;;5.10;1.75;;;;;;;22.38;39.12;99920.73;4097610;85;21511;-78
2021/06/03 09:56:27;;;;;;;2.62;1.52;;;;;;;22.67;38.51;99920.29;4108576;84;21697;-79
2021/06/03 10:02:37;;;;;;;6.15;2.05;;;;;;;22.59;36.43;99905.72;4107366;85;21071;-80
2021/06/03 10:08:56;;;;;;;2.30;1.77;;;;;;;22.95;36.70;99907.84;4105078;85;21456;-79
2021/06/03 10:15:16;;;;;;;6.00;2.10;;;;;;;23.10;36.47;99914.64;4114815;85;20997;-80
2021/06/03 10:21:36;;;;;;;2.65;1.70;;;;;;;22.87;33.91;99904.25;4083870;85;21038;-78
2021/06/03 10:27:52;;;;;;;2.27;1.60;;;;;;;23.14;35.25;99907.57;4115212;85;21036;-78
2021/06/03 10:33:59;;;;;;;5.75;2.02;;;;;;;23.44;33.93;99908.62;4105513;85;21074;-80
2021/06/03 10:40:14;;;;;;;3.92;1.70;;;;;;;23.69;35.46;99902.34;4110502;85;21096;-80
2021/06/03 10:46:35;;;;;;;6.92;2.00;;;;;;;23.82;34.16;99903.19;4101941;84;21090;-82
2021/06/03 10:52:36;;;;;;;7.10;2.58;;;;;;;23.46;32.19;99897.77;3975266;88;21113;-81
2021/06/03 10:58:49;;;;;;;4.40;2.40;;;;;;;24.01;33.39;99905.04;4127420;84;21061;-81
2021/06/03 11:04:56;;;;;;;2.35;2.10;;;;;;;24.68;32.86;99890.61;4116217;85;21020;-79
2021/06/03 11:11:50;;;;;;;5.20;2.12;;;;;;;24.77;31.65;99896.95;4126553;85;21087;-82
2021/06/03 11:18:08;;;;;;;7.03;2.30;;;;;;;25.30;30.97;99888.16;4114977;84;21544;-83
2021/06/03 11:24:35;;;;;;;4.50;2.12;;;;;;;25.61;31.21;99884.88;4103631;85;21860;-84
2021/06/03 11:30:41;;;;;;;3.27;1.92;;;;;;;25.57;31.23;99883.62;4114022;85;21016;-80
2021/06/03 11:37:14;;;;;;;;;;;;;;;;;;;;;
2021/06/03 11:43:14;;;;;;;5.00;2.20;;;;;;;26.69;31.54;99879.97;3988257;88;21054;-80
2021/06/03 11:50:03;;;;;;;5.03;2.20;;;;;;;27.23;31.20;99869.49;4077702;84;21023;-80
2021/06/03 11:56:29;;;;;;;3.45;1.95;;;;;;;27.25;31.05;99862.79;4146218;84;21012;-80
2021/06/03 12:02:38;;;;;;;2.77;1.45;;;;;;;27.01;31.12;99861.19;4144202;83;22273;-81
2021/06/03 12:08:57;;;;;;;3.22;2.00;;;;;;;26.26;30.63;99867.44;4143441;84;21005;-80
2021/06/03 12:14:58;;;;;;;3.42;1.80;;;;;;;25.65;30.52;99872.30;4144027;84;21030;-80
2021/06/03 12:21:00;;;;;;;2.22;1.70;;;;;;;25.51;30.80;99865.03;4154577;84;21300;-80
2021/06/03 12:27:03;;;;;;;4.03;2.00;;;;;;;24.98;29.76;99859.82;4145754;84;21074;-79
2021/06/03 12:33:27;;;;;;;3.65;2.08;;;;;;;24.80;30.21;99860.25;4144382;84;21051;-81
2021/06/03 12:39:36;;;;;;;3.72;1.70;;;;;;;24.43;30.26;99850.63;4136926;83;21582;-80
2021/06/03 12:45:42;;;;;;;5.65;1.87;;;;;;;24.30;30.06;99842.23;4143868;84;21492;-80
2021/06/03 12:52:07;;;;;;;2.33;1.70;;;;;;;24.25;30.53;99829.40;4156691;83;21047;-80
2021/06/03 12:58:12;;;;;;;6.63;1.80;;;;;;;24.09;30.31;99826.09;4140843;84;21533;-80
2021/06/03 13:04:13;;;;;;;2.75;2.00;;;;;;;23.82;30.13;99831.89;4141529;83;21058;-82
2021/06/03 13:10:22;;;;;;;4.70;2.00;;;;;;;23.21;30.77;99833.36;4144032;84;21110;-80
2021/06/03 13:16:25;;;;;;;3.87;1.80;;;;;;;23.29;31.05;99827.79;4149144;84;21077;-80
2021/06/03 13:22:31;;;;;;;2.90;2.10;;;;;;;23.18;31.38;99833.64;4146766;84;21059;-80
2021/06/03 13:28:32;;;;;;;2.50;1.57;;;;;;;23.13;31.10;99823.63;4141706;84;21546;-81
2021/06/03 13:34:46;;;;;;;9.13;2.25;;;;;;;23.14;32.51;99820.99;4154910;83;21533;-82
2021/06/03 13:40:49;;;;;;;2.33;2.10;;;;;;;23.21;30.87;99808.22;4142962;84;20968;-81
2021/06/03 13:46:54;;;;;;;3.58;1.75;;;;;;;23.09;31.43;99814.54;4139954;84;21023;-79
2021/06/03 13:53:00;;;;;;;6.33;2.17;;;;;;;23.01;32.51;99812.55;4137851;84;21040;-79
2021/06/03 13:59:12;;;;;;;3.77;2.17;;;;;;;22.70;32.42;99811.37;4140166;84;21044;-81
2021/06/03 14:05:15;;;;;;;4.55;2.52;;;;;;;22.54;32.39;99811.96;4152237;84;20999;-80
2021/06/03 14:11:46;;;;;;;5.33;2.05;;;;;;;22.60;32.47;99819.98;4142513;84;21042;-81
2021/06/03 14:17:48;;;;;;;2.95;1.60;;;;;;;22.93;31.73;99810.37;4145101;84;21078;-81
2021/06/03 14:23:52;;;;;;;2.77;1.80;;;;;;;23.27;32.27;99801.53;4115917;84;21074;-80
2021/06/03 14:30:26;;;;;;;6.53;2.10;;;;;;;23.31;31.69;99789.63;4144279;84;21031;-79
2021/06/03 14:36:27;;;;;;;3.70;1.85;;;;;;;23.57;32.12;99787.87;4139615;84;21531;-80
2021/06/03 14:42:35;;;;;;;5.08;1.80;;;;;;;23.56;31.79;99787.72;4148066;84;21090;-80
2021/06/03 14:48:40;;;;;;;2.67;1.70;;;;;;;23.57;32.02;99784.31;4141276;84;21083;-80
2021/06/03 14:54:41;;;;;;;3.25;1.70;;;;;;;23.35;31.35;99784.75;4142722;84;20996;-80
2021/06/03 15:00:46;;;;;;;4.20;1.50;;;;;;;23.38;32.04;99782.47;4148450;84;21014;-82
2021/06/03 15:06:48;;;;;;;3.37;1.95;;;;;;;23.19;30.05;99784.92;4149134;84;21018;-80
2021/06/03 15:12:51;;;;;;;3.83;1.80;;;;;;;23.26;30.09;99786.00;4153742;84;21323;-80
2021/06/03 15:18:52;;;;;;;5.40;2.10;;;;;;;23.14;30.69;99788.88;4144391;84;21473;-80
2021/06/03 15:24:53;;;;;;;4.42;2.00;;;;;;;23.09;31.50;99783.82;4145240;84;20980;-79
2021/06/03 15:30:55;;;;;;;3.92;2.87;;;;;;;22.95;31.31;99777.22;4149639;84;21042;-80
2021/06/03 15:36:56;;;;;;;4.95;2.85;;;;;;;22.82;31.76;99791.71;4151452;83;21034;-81
2021/06/03 15:42:57;;;;;;;6.20;2.95;;;;;;;22.56;32.31;99787.20;4145716;84;21566;-80
2021/06/03 15:48:59;;;;;;;7.15;3.58;;;;;;;22.29;32.85;99786.63;4153093;84;21039;-79
2021/06/03 15:55:00;;;;;;;5.12;2.60;;;;;;;22.25;32.93;99788.14;4150115;84;21024;-80
2021/06/03 16:01:02;;;;;;;5.05;2.35;;;;;;;22.20;33.13;99777.49;4148600;83;21079;-80
2021/06/03 16:07:05;;;;;;;3.95;3.17;;;;;;;22.03;33.35;99780.08;4153084;84;20971;-80
2021/06/03 16:13:07;;;;;;;9.10;2.47;;;;;;;21.99;33.30;99784.17;4138196;84;20960;-80
2021/06/03 16:19:08;;;;;;;9.60;4.70;;;;;;;21.89;33.40;99787.37;4148252;83;21095;-81
2021/06/03 16:25:13;;;;;;;3.58;2.35;;;;;;;21.78;33.41;99781.24;4143069;84;22260;-80
2021/06/03 16:31:15;;;;;;;4.45;2.12;;;;;;;21.69;33.26;99774.81;4156378;83;20984;-79
2021/06/03 16:37:17;;;;;;;7.17;2.83;;;;;;;21.66;33.11;99777.08;4148055;84;21000;-81
2021/06/03 16:43:22;;;;;;;6.95;3.25;;;;;;;21.64;34.00;99779.50;4155768;83;21087;-79
2021/06/03 16:49:25;;;;;;;5.45;2.60;;;;;;;21.58;34.28;99779.06;4034092;82;10000289;-80
2021/06/03 16:55:33;;;;;;;3.75;2.80;;;;;;;21.49;34.14;99787.19;4149876;84;21424;-80
2021/06/03 17:01:36;;;;;;;4.65;3.33;;;;;;;21.41;34.20;99790.73;4155419;83;21517;-79
2021/06/03 17:07:37;;;;;;;4.50;2.50;;;;;;;21.21;34.59;99793.31;4154861;83;21081;-80
2021/06/03 17:13:38;;;;;;;5.55;3.33;;;;;;;21.00;34.94;99788.17;4159171;84;21605;-79
2021/06/03 17:19:40;;;;;;;4.65;2.30;;;;;;;20.78;35.38;99786.32;4142958;84;21047;-80
2021/06/03 17:25:44;;;;;;;4.17;2.62;;;;;;;20.58;35.90;99793.05;4199229;84;21468;-80
2021/06/03 17:31:45;;;;;;;3.75;2.95;;;;;;;20.43;36.08;99793.88;4140969;84;21016;-82
2021/06/03 17:37:50;;;;;;;4.05;2.80;;;;;;;20.32;36.50;99798.83;4144355;84;21020;-80
2021/06/03 17:43:54;;;;;;;5.50;3.25;;;;;;;20.17;36.98;99805.20;4152736;84;21603;-80
2021/06/03 17:49:57;;;;;;;6.78;3.75;;;;;;;20.07;37.19;99811.68;4144020;83;21503;-81
2021/06/03 17:55:58;;;;;;;7.08;3.42;;;;;;;19.95;37.52;99808.06;4146152;83;21848;-80
2021/06/03 18:02:03;;;;;;;7.15;4.20;;;;;;;19.80;38.00;99820.58;4146673;84;20992;-81
2021/06/03 18:08:07;;;;;;;9.15;5.37;;;;;;;19.68;38.37;99814.20;4113972;84;20972;-80
2021/06/03 18:14:11;;;;;;;7.17;4.87;;;;;;;19.55;38.69;99815.14;4145490;84;21007;-79
2021/06/03 18:20:19;;;;;;;8.63;5.00;;;;;;;19.41;39.18;99822.25;4032744;84;10000211;-81
2021/06/03 18:26:21;;;;;;;7.72;4.70;;;;;;;19.22;39.66;99827.78;4148873;84;21004;-83
2021/06/03 18:32:22;;;;;;;7.10;4.30;;;;;;;18.97;40.32;99820.89;4144089;84;20976;-80
2021/06/03 18:38:24;;;;;;;8.95;4.85;;;;;;;18.59;40.84;99826.38;4141052;84;21036;-80
2021/06/03 18:44:27;;;;;;;9.10;6.20;;;;;;;18.26;41.45;99822.83;4148951;84;20970;-80
2021/06/03 18:50:30;;;;;;;16.57;7.17;;;;;;;17.99;42.07;99824.61;4127535;83;21127;-81
2021/06/03 18:56:33;;;;;;;9.08;5.92;;;;;;;17.68;42.58;99823.38;4063643;86;21035;-80
2021/06/03 19:02:36;;;;;;;11.97;6.92;;;;;;;17.39;43.12;99837.08;4055544;86;21033;-80
2021/06/03 19:08:37;;;;;;;15.75;8.15;;;;;;;17.10;43.58;99838.53;4061554;86;21063;-80
2021/06/03 19:14:40;;;;;;;13.78;8.58;;;;;;;16.88;43.98;99842.51;4061157;85;21008;-79
2021/06/03 19:20:44;;;;;;;15.43;9.63;;;;;;;16.69;44.26;99851.81;3946229;85;10000265;-79
2021/06/03 19:26:45;;;;;;;19.80;10.82;;;;;;;16.48;44.64;99853.17;4062315;86;21717;-79
2021/06/03 19:32:47;;;;;;;19.35;9.75;;;;;;;16.27;45.16;99856.66;4064869;86;21068;-79
2021/06/03 19:38:49;;;;;;;16.05;9.60;;;;;;;16.11;45.26;99863.16;4065503;86;21047;-79
2021/06/03 19:44:51;;;;;;;15.05;9.83;;;;;;;15.91;45.68;99863.27;4064865;86;22042;-80
2021/06/03 19:50:53;;;;;;;10.03;8.33;;;;;;;15.75;47.55;99855.94;4058582;85;21471;-81
2021/06/03 19:56:54;;;;;;;15.98;9.48;;;;;;;15.43;48.20;99859.13;4043093;86;21488;-79
2021/06/03 20:02:57;;;;;;;12.45;8.50;;;;;;;15.23;48.30;99857.80;4043982;86;21083;-80
2021/06/03 20:09:02;;;;;;;13.80;9.93;;;;;;;15.07;50.05;99862.23;4043734;86;21055;-80
2021/06/03 20:15:07;;;;;;;11.80;8.08;;;;;;;14.83;50.93;99855.17;4044688;86;21078;-80
2021/06/03 20:21:09;;;;;;;13.55;9.33;;;;;;;14.50;52.07;99856.05;4042359;86;21127;-79
2021/06/03 20:27:10;;;;;;;27.55;9.90;;;;;;;14.33;52.62;99864.17;4042585;86;21071;-78
2021/06/03 20:33:19;;;;;;;16.55;9.38;;;;;;;14.04;53.01;99858.92;4043490;86;21071;-79
2021/06/03 20:39:20;;;;;;;12.82;8.53;;;;;;;13.86;53.96;99861.47;4041280;86;21036;-79
2021/06/03 20:45:27;;;;;;;18.67;9.58;;;;;;;13.67;54.31;99864.98;4041989;86;21051;-79
2021/06/03 20:51:28;;;;;;;14.73;8.60;;;;;;;13.39;55.14;99862.64;4039132;86;21043;-78
2021/06/03 20:57:29;;;;;;;16.05;9.10;;;;;;;13.24;55.78;99860.88;4040767;86;21095;-79
2021/06/03 21:03:33;;;;;;;15.43;9.60;;;;;;;13.09;56.64;99865.16;4043023;86;21083;-79
2021/06/03 21:09:35;;;;;;;14.25;9.00;;;;;;;13.04;57.03;99880.02;4045218;86;21084;-79
2021/06/03 21:15:37;;;;;;;11.85;7.97;;;;;;;12.86;57.78;99895.39;4040687;86;21035;-79
2021/06/03 21:21:39;;;;;;;18.37;9.30;;;;;;;12.85;58.33;99897.14;4041890;86;21087;-79
2021/06/03 21:27:42;;;;;;;17.02;8.60;;;;;;;12.61;58.68;99896.94;4045709;86;21869;-78
2021/06/03 21:33:45;;;;;;;16.23;9.50;;;;;;;12.32;59.05;99897.60;4048696;85;21056;-79
2021/06/03 21:39:48;;;;;;;17.42;9.90;;;;;;;12.13;59.42;99901.75;4045552;86;21092;-79
2021/06/03 21:45:49;;;;;;;13.58;9.15;;;;;;;12.01;59.96;99901.91;4044584;86;21088;-79
2021/06/03 21:51:51;;;;;;;17.90;11.28;;;;;;;11.82;60.49;99894.48;4042264;85;21068;-80
2021/06/03 21:57:54;;;;;;;26.12;14.05;;;;;;;11.66;61.01;99895.13;4030186;87;21048;-79
2021/06/03 22:03:55;;;;;;;15.03;9.35;;;;;;;11.55;61.45;99889.16;4030883;87;21060;-79
2021/06/03 22:09:57;;;;;;;26.37;14.38;;;;;;;11.56;62.62;99894.28;4030100;87;21059;-79
2021/06/03 22:15:59;;;;;;;25.90;15.83;;;;;;;11.41;62.32;99888.86;4031761;87;20992;-79
2021/06/03 22:22:03;;;;;;;18.90;11.93;;;;;;;11.14;62.81;99904.31;4028792;87;21040;-79
2021/06/03 22:28:11;;;;;;;23.40;12.93;;;;;;;11.24;63.90;99898.86;4031284;87;21065;-79
2021/06/03 22:34:15;;;;;;;20.85;14.05;;;;;;;11.55;64.07;99900.94;4027829;87;21389;-79
2021/06/03 22:40:22;;;;;;;26.68;12.63;;;;;;;11.36;63.52;99896.79;4031661;87;21122;-79
2021/06/03 22:46:23;;;;;;;19.27;11.93;;;;;;;11.17;64.04;99891.27;4028878;87;21111;-79
2021/06/03 22:52:27;;;;;;;19.12;11.48;;;;;;;11.06;64.54;99889.66;4039009;85;21038;-79
2021/06/03 22:58:28;;;;;;;19.12;11.63;;;;;;;10.85;64.46;99897.95;4126244;85;21019;-80
2021/06/03 23:04:30;;;;;;;19.87;12.33;;;;;;;10.85;65.62;99896.59;4120940;83;21052;-82
2021/06/03 23:10:33;;;;;;;22.10;11.80;;;;;;;10.50;65.42;99899.80;4116458;85;21107;-78
2021/06/03 23:16:36;;;;;;;18.70;11.35;;;;;;;10.41;65.89;99901.92;4115076;84;21067;-79
2021/06/03 23:22:38;;;;;;;22.35;13.28;;;;;;;10.25;65.61;99895.63;4132188;84;21051;-79
2021/06/03 23:28:40;;;;;;;19.60;11.70;;;;;;;10.05;66.08;99896.61;4117927;84;21582;-78
2021/06/03 23:34:41;;;;;;;16.30;10.88;;;;;;;10.06;66.77;99900.37;4121418;84;21017;-79
2021/06/03 23:40:45;;;;;;;18.75;11.57;;;;;;;9.96;66.57;99894.61;4121086;85;20984;-78
2021/06/03 23:46:46;;;;;;;17.10;10.90;;;;;;;9.89;67.79;99896.58;4120693;84;21075;-78
2021/06/03 23:52:50;;;;;;;18.40;11.95;;;;;;;9.72;66.94;99885.94;4100318;85;21102;-79
2021/06/03 23:58:51;;;;;;;22.60;13.60;;;;;;;9.48;67.99;99886.81;4062552;86;21630;-79
